Time,TemperatureF,DewpointF,PressureIn,WindDirection,WindDirectionDegrees,WindSpeedMPH,WindSpeedGustMPH,Humidity,HourlyPrecipIn,Conditions,Clouds,dailyrainin,SolarRadiationWatts/m^2,SoftwareType,DateUTC
2013-01-05 00:00:00,72.8,71.3,30.19,NNE,13,3.0,5.0,95,0.00,,FEW,0.07,0.00,VWS V14.01,2013-01-05 05:00:00,
2013-01-05 00:01:00,72.8,71.3,30.19,North,10,2.0,5.0,95,0.00,,FEW,0.07,0.00,VWS V14.01,2013-01-05 05:01:00,
2013-01-05 00:05:00,72.8,71.3,30.19,North,10,2.0,3.0,95,0.00,,FEW,0.00,0.00,VWS V14.01,2013-01-05 05:05:00,
2013-01-05 00:06:00,72.8,71.3,30.19,NNW,347,3.0,3.0,95,0.00,,FEW,0.00,0.00,VWS V14.01,2013-01-05 05:06:00,
2013-01-05 00:10:00,72.8,71.3,30.19,North,9,2.0,3.0,95,0.00,,FEW,0.00,0.00,VWS V14.01,2013-01-05 05:10:00,
2013-01-05 00:11:00,72.8,71.3,30.19,North,9,1.0,3.0,95,0.00,,FEW,0.00,0.00,VWS V14.01,2013-01-05 05:11:00,
2013-01-05 00:15:00,72.8,71.3,30.19,NNE,25,5.0,5.0,95,0.00,,FEW,0.00,0.00,VWS V14.01,2013-01-05 05:15:00,
2013-01-05 00:16:00,72.8,71.3,30.19,North,355,3.0,5.0,95,0.00,,FEW,0.00,0.00,VWS V14.01,2013-01-05 05:16:00,
2013-01-05 00:20:00,72.6,71.1,30.19,North,360,2.0,5.0,95,0.00,,FEW,0.00,0.00,VWS V14.01,2013-01-05 05:20:00,
2013-01-05 00:21:00,72.5,71.0,30.19,NNW,348,3.0,5.0,95,0.00,,FEW,0.00,0.00,VWS V14.01,2013-01-05 05:21:00,
2013-01-05 00:26:00,72.4,70.9,30.19,North,355,4.0,4.0,95,0.00,,FEW,0.00,0.00,VWS V14.01,2013-01-05 05:26:00,
2013-01-05 00:30:00,72.4,70.9,30.18,NNW,343,4.0,4.0,95,0.00,,FEW,0.00,0.00,VWS V14.01,2013-01-05 05:30:00,
2013-01-05 00:31:00,72.4,70.9,30.18,North,5,4.0,4.0,95,0.00,,FEW,0.00,0.00,VWS V14.01,2013-01-05 05:31:00,
2013-01-05 00:36:00,72.3,70.8,30.18,NNE,19,3.0,6.0,95,0.00,,FEW,0.00,0.00,VWS V14.01,2013-01-05 05:36:00,
2013-01-05 00:40:00,72.2,70.7,30.18,North,5,3.0,6.0,95,0.00,,FEW,0.00,0.00,VWS V14.01,2013-01-05 05:40:00,
2013-01-05 00:41:00,72.2,70.7,30.18,NNE,17,1.0,6.0,95,0.00,,FEW,0.00,0.00,VWS V14.01,2013-01-05 05:41:00,
2013-01-05 00:46:00,72.2,70.7,30.18,NE,47,1.0,5.0,95,0.00,,FEW,0.00,0.00,VWS V14.01,2013-01-05 05:46:00,
2013-01-05 00:50:00,72.2,70.7,30.18,NE,35,2.0,5.0,95,0.00,,FEW,0.00,0.00,VWS V14.01,2013-01-05 05:50:00,
2013-01-05 00:51:00,72.2,70.7,30.18,NE,35,3.0,5.0,95,0.00,,FEW,0.00,0.00,VWS V14.01,2013-01-05 05:51:00,
2013-01-05 00:56:00,72.4,71.2,30.18,NNE,26,1.0,3.0,96,0.00,,FEW,0.00,0.00,VWS V14.01,2013-01-05 05:56:00,
2013-01-05 01:00:00,72.5,71.3,30.17,NNE,32,0.0,3.0,96,0.00,,FEW,0.00,0.00,VWS V14.01,2013-01-05 06:00:00,
2013-01-05 01:01:00,72.5,71.3,30.17,NNE,32,1.0,1.0,96,0.00,,FEW,0.00,0.00,VWS V14.01,2013-01-05 06:01:00,
2013-01-05 01:02:00,72.5,71.3,30.17,NNE,32,0.0,1.0,96,0.00,,FEW,0.00,0.00,VWS V14.01,2013-01-05 06:02:00,
2013-01-05 01:06:00,72.5,71.3,30.17,NNE,27,1.0,3.0,96,0.00,,FEW,0.00,0.00,VWS V14.01,2013-01-05 06:06:00,
2013-01-05 01:07:00,72.5,71.3,30.17,North,11,3.0,3.0,96,0.00,,FEW,0.00,0.00,VWS V14.01,2013-01-05 06:07:00,
2013-01-05 01:10:00,72.5,71.3,30.17,NE,39,1.0,3.0,96,0.00,,FEW,0.00,0.00,VWS V14.01,2013-01-05 06:10:00,
2013-01-05 01:11:00,72.5,71.3,30.17,NE,40,1.0,1.0,96,0.00,,FEW,0.00,0.00,VWS V14.01,2013-01-05 06:11:00,
2013-01-05 01:12:00,72.5,71.3,30.17,NE,40,0.0,1.0,96,0.00,,FEW,0.00,0.00,VWS V14.01,2013-01-05 06:12:00,
2013-01-05 01:16:00,72.5,71.3,30.17,NE,49,0.0,2.0,96,0.00,,FEW,0.00,0.00,VWS V14.01,2013-01-05 06:16:00,
2013-01-05 01:17:00,72.5,71.3,30.17,NE,49,1.0,2.0,96,0.00,,FEW,0.00,0.00,VWS V14.01,2013-01-05 06:17:00,
2013-01-05 01:20:00,72.5,71.3,30.17,NE,36,0.0,2.0,96,0.00,,FEW,0.00,0.00,VWS V14.01,2013-01-05 06:20:00,
2013-01-05 01:21:00,72.5,71.3,30.17,NE,36,0.0,0.0,96,0.00,,FEW,0.00,0.00,VWS V14.01,2013-01-05 06:21:00,
2013-01-05 01:22:00,72.5,71.3,30.17,NE,36,0.0,0.0,96,0.00,,FEW,0.00,0.00,VWS V14.01,2013-01-05 06:22:00,
2013-01-05 01:26:00,72.6,71.4,30.17,NE,46,0.0,3.0,96,0.00,,FEW,0.00,0.00,VWS V14.01,2013-01-05 06:26:00,
2013-01-05 01:27:00,72.6,71.4,30.17,ENE,62,1.0,3.0,96,0.00,,FEW,0.00,0.00,VWS V14.01,2013-01-05 06:27:00,
2013-01-05 01:30:00,72.6,71.4,30.17,ENE,57,0.0,3.0,96,0.00,,FEW,0.00,0.00,VWS V14.01,2013-01-05 06:30:00,
2013-01-05 01:32:00,72.6,71.4,30.17,ENE,57,1.0,1.0,96,0.00,,FEW,0.00,0.00,VWS V14.01,2013-01-05 06:32:00,
2013-01-05 01:37:00,72.6,71.4,30.17,NE,36,0.0,3.0,96,0.00,,FEW,0.00,0.00,VWS V14.01,2013-01-05 06:37:00,
2013-01-05 01:40:00,72.7,71.5,30.17,NNE,32,1.0,3.0,96,0.00,,FEW,0.00,0.00,VWS V14.01,2013-01-05 06:40:00,
2013-01-05 01:42:00,72.7,71.5,30.17,NNE,32,0.0,1.0,96,0.00,,FEW,0.00,0.00,VWS V14.01,2013-01-05 06:42:00,
2013-01-05 01:47:00,72.8,71.6,30.16,NE,47,0.0,1.0,96,0.00,,FEW,0.00,0.00,VWS V14.01,2013-01-05 06:47:00,
2013-01-05 01:48:00,72.8,71.6,30.16,NE,47,0.0,1.0,96,0.00,,FEW,0.00,0.00,VWS V14.01,2013-01-05 06:48:00,
2013-01-05 01:50:00,72.8,71.6,30.16,ENE,64,1.0,1.0,96,0.00,,FEW,0.00,0.00,VWS V14.01,2013-01-05 06:50:00,
2013-01-05 01:52:00,72.8,71.6,30.16,ENE,65,1.0,2.0,96,0.00,,FEW,0.00,0.00,VWS V14.01,2013-01-05 06:52:00,
2013-01-05 01:53:00,72.8,71.6,30.16,ENE,65,0.0,2.0,96,0.00,,FEW,0.00,0.00,VWS V14.01,2013-01-05 06:53:00,
2013-01-05 01:57:00,72.8,71.6,30.16,ENE,65,1.0,2.0,96,0.00,,FEW,0.00,0.00,VWS V14.01,2013-01-05 06:57:00,
2013-01-05 01:58:00,72.8,71.6,30.16,ENE,65,1.0,2.0,96,0.00,,FEW,0.00,0.00,VWS V14.01,2013-01-05 06:58:00,
2013-01-05 02:00:00,72.7,71.5,30.16,ENE,65,0.0,2.0,96,0.00,,FEW,0.00,0.00,VWS V14.01,2013-01-05 07:00:00,
2013-01-05 02:02:00,72.7,71.5,30.16,ENE,65,0.0,1.0,96,0.00,,FEW,0.00,0.00,VWS V14.01,2013-01-05 07:02:00,
2013-01-05 02:03:00,72.7,71.5,30.16,ENE,65,1.0,1.0,96,0.00,,FEW,0.00,0.00,VWS V14.01,2013-01-05 07:03:00,
2013-01-05 02:07:00,72.6,71.4,30.16,ENE,65,0.0,1.0,96,0.00,,FEW,0.00,0.00,VWS V14.01,2013-01-05 07:07:00,
2013-01-05 02:08:00,72.6,71.4,30.16,ENE,65,0.0,1.0,96,0.00,,FEW,0.00,0.00,VWS V14.01,2013-01-05 07:08:00,
2013-01-05 02:10:00,72.5,71.3,30.16,ENE,65,0.0,1.0,96,0.00,,FEW,0.00,0.00,VWS V14.01,2013-01-05 07:10:00,
2013-01-05 02:12:00,72.5,71.3,30.16,ENE,65,0.0,1.0,96,0.00,,FEW,0.00,0.00,VWS V14.01,2013-01-05 07:12:00,
2013-01-05 02:13:00,72.5,71.3,30.16,ENE,65,0.0,1.0,96,0.00,,FEW,0.00,0.00,VWS V14.01,2013-01-05 07:13:00,
2013-01-05 02:17:00,72.4,71.2,30.16,ENE,65,0.0,1.0,96,0.00,,FEW,0.00,0.00,VWS V14.01,2013-01-05 07:17:00,
2013-01-05 02:18:00,72.4,71.2,30.16,ENE,65,1.0,1.0,96,0.00,,FEW,0.00,0.00,VWS V14.01,2013-01-05 07:18:00,
2013-01-05 02:20:00,72.4,71.2,30.16,ENE,71,0.0,2.0,96,0.00,,FEW,0.00,0.00,VWS V14.01,2013-01-05 07:20:00,
2013-01-05 02:22:00,72.4,71.2,30.16,East,85,1.0,1.0,96,0.00,,FEW,0.00,0.00,VWS V14.01,2013-01-05 07:22:00,
2013-01-05 02:23:00,72.4,71.2,30.16,ENE,73,1.0,1.0,96,0.00,,FEW,0.00,0.00,VWS V14.01,2013-01-05 07:23:00,
2013-01-05 02:27:00,72.3,71.1,30.16,ENE,68,0.0,2.0,96,0.00,,FEW,0.00,0.00,VWS V14.01,2013-01-05 07:27:00,
2013-01-05 02:28:00,72.4,71.2,30.16,ENE,68,1.0,2.0,96,0.00,,FEW,0.00,0.00,VWS V14.01,2013-01-05 07:28:00,
2013-01-05 02:30:00,72.3,71.1,30.15,ENE,75,0.0,2.0,96,0.00,,FEW,0.00,0.00,VWS V14.01,2013-01-05 07:30:00,
2013-01-05 02:33:00,72.3,71.1,30.15,ENE,76,2.0,2.0,96,0.00,,FEW,0.00,0.00,VWS V14.01,2013-01-05 07:33:00,
2013-01-05 02:38:00,72.3,71.1,30.15,ENE,73,0.0,2.0,96,0.00,,FEW,0.00,0.00,VWS V14.01,2013-01-05 07:38:00,
2013-01-05 02:40:00,72.3,71.1,30.15,NE,44,2.0,3.0,96,0.00,,FEW,0.00,0.00,VWS V14.01,2013-01-05 07:40:00,
2013-01-05 02:43:00,72.3,71.1,30.15,NE,43,2.0,2.0,96,0.00,,FEW,0.00,0.00,VWS V14.01,2013-01-05 07:43:00,
2013-01-05 02:48:00,72.2,71.0,30.15,NE,47,1.0,3.0,96,0.00,,FEW,0.00,0.00,VWS V14.01,2013-01-05 07:48:00,
2013-01-05 02:49:00,72.2,71.0,30.15,ENE,61,1.0,3.0,96,0.00,,FEW,0.00,0.00,VWS V14.01,2013-01-05 07:49:00,
2013-01-05 02:50:00,72.2,71.0,30.15,ENE,57,0.0,3.0,96,0.00,,FEW,0.00,0.00,VWS V14.01,2013-01-05 07:50:00,
2013-01-05 02:53:00,72.2,71.0,30.15,ENE,69,1.0,3.0,96,0.00,,FEW,0.00,0.00,VWS V14.01,2013-01-05 07:53:00,
2013-01-05 02:54:00,72.2,71.0,30.15,ENE,70,2.0,3.0,96,0.00,,FEW,0.00,0.00,VWS V14.01,2013-01-05 07:54:00,
2013-01-05 02:58:00,72.2,71.0,30.15,NE,43,1.0,3.0,96,0.00,,FEW,0.00,0.00,VWS V14.01,2013-01-05 07:58:00,
2013-01-05 02:59:00,72.2,71.0,30.15,NE,43,1.0,3.0,96,0.00,,FEW,0.00,0.00,VWS V14.01,2013-01-05 07:59:00,
2013-01-05 03:00:00,72.2,71.0,30.15,NE,53,2.0,3.0,96,0.00,,FEW,0.00,0.00,VWS V14.01,2013-01-05 08:00:00,
2013-01-05 03:03:00,72.2,71.0,30.15,NE,56,2.0,3.0,96,0.00,,FEW,0.00,0.00,VWS V14.01,2013-01-05 08:03:00,
2013-01-05 03:04:00,72.2,71.0,30.15,NE,46,2.0,3.0,96,0.00,,FEW,0.00,0.00,VWS V14.01,2013-01-05 08:04:00,
2013-01-05 03:08:00,72.2,71.0,30.15,NE,35,1.0,3.0,96,0.01,,FEW,0.01,0.00,VWS V14.01,2013-01-05 08:08:00,
2013-01-05 03:09:00,72.2,71.0,30.15,NE,35,1.0,3.0,96,0.01,,FEW,0.01,0.00,VWS V14.01,2013-01-05 08:09:00,
2013-01-05 03:10:00,72.2,71.0,30.15,ENE,62,1.0,3.0,96,0.01,,FEW,0.01,0.00,VWS V14.01,2013-01-05 08:10:00,
2013-01-05 03:14:00,72.2,71.0,30.15,ENE,57,1.0,2.0,96,0.01,,FEW,0.01,0.00,VWS V14.01,2013-01-05 08:14:00,
2013-01-05 03:19:00,72.2,71.0,30.14,ENE,64,0.0,3.0,96,0.01,,FEW,0.01,0.00,VWS V14.01,2013-01-05 08:19:00,
2013-01-05 03:20:00,72.3,71.1,30.14,NE,51,0.0,3.0,96,0.01,,FEW,0.01,0.00,VWS V14.01,2013-01-05 08:20:00,
2013-01-05 03:24:00,72.2,71.0,30.14,NE,45,2.0,2.0,96,0.01,,FEW,0.01,0.00,VWS V14.01,2013-01-05 08:24:00,
2013-01-05 03:29:00,72.2,71.0,30.14,NE,35,1.0,3.0,96,0.01,,FEW,0.01,0.00,VWS V14.01,2013-01-05 08:29:00,
2013-01-05 03:30:00,72.2,71.0,30.14,NE,49,1.0,3.0,96,0.01,,FEW,0.01,0.00,VWS V14.01,2013-01-05 08:30:00,
2013-01-05 03:34:00,72.3,71.1,30.14,NE,53,2.0,3.0,96,0.01,,FEW,0.01,0.00,VWS V14.01,2013-01-05 08:34:00,
2013-01-05 03:35:00,72.3,71.1,30.14,NE,40,1.0,3.0,96,0.01,,FEW,0.01,0.00,VWS V14.01,2013-01-05 08:35:00,
2013-01-05 03:39:00,72.3,71.1,30.14,NE,46,1.0,3.0,96,0.01,,FEW,0.01,0.00,VWS V14.01,2013-01-05 08:39:00,
2013-01-05 03:40:00,72.3,71.1,30.14,NE,45,1.0,3.0,96,0.01,,FEW,0.01,0.00,VWS V14.01,2013-01-05 08:40:00,
2013-01-05 03:44:00,72.4,71.2,30.14,NE,50,2.0,4.0,96,0.01,,FEW,0.01,0.00,VWS V14.01,2013-01-05 08:44:00,
2013-01-05 03:45:00,72.4,71.2,30.14,NE,50,0.0,4.0,96,0.01,,FEW,0.01,0.00,VWS V14.01,2013-01-05 08:45:00,
2013-01-05 03:49:00,72.4,71.2,30.14,NE,34,0.0,4.0,96,0.01,,FEW,0.01,0.00,VWS V14.01,2013-01-05 08:49:00,
2013-01-05 03:50:00,72.5,71.3,30.14,NNE,32,3.0,4.0,96,0.01,,FEW,0.01,0.00,VWS V14.01,2013-01-05 08:50:00,
2013-01-05 03:51:00,72.5,71.3,30.14,ENE,62,0.0,4.0,96,0.01,,FEW,0.01,0.00,VWS V14.01,2013-01-05 08:51:00,
2013-01-05 03:54:00,72.5,71.3,30.14,ENE,74,2.0,2.0,96,0.01,,FEW,0.01,0.00,VWS V14.01,2013-01-05 08:54:00,
2013-01-05 03:55:00,72.5,71.3,30.14,ENE,71,0.0,2.0,96,0.01,,FEW,0.01,0.00,VWS V14.01,2013-01-05 08:55:00,
2013-01-05 03:56:00,72.5,71.3,30.14,NE,52,2.0,3.0,96,0.01,,FEW,0.01,0.00,VWS V14.01,2013-01-05 08:56:00,
2013-01-05 04:00:00,72.4,71.2,30.14,ENE,63,0.0,3.0,96,0.01,,FEW,0.01,0.00,VWS V14.01,2013-01-05 09:00:00,
2013-01-05 04:01:00,72.4,71.2,30.14,NE,47,2.0,3.0,96,0.01,,FEW,0.01,0.00,VWS V14.01,2013-01-05 09:01:00,
2013-01-05 04:05:00,72.4,71.2,30.14,NE,55,2.0,5.0,96,0.01,,FEW,0.01,0.00,VWS V14.01,2013-01-05 09:05:00,
2013-01-05 04:06:00,72.3,71.1,30.14,NE,55,1.0,5.0,96,0.01,,FEW,0.01,0.00,VWS V14.01,2013-01-05 09:06:00,
2013-01-05 04:10:00,72.2,71.0,30.14,ENE,57,1.0,5.0,96,0.01,,FEW,0.01,0.00,VWS V14.01,2013-01-05 09:10:00,
2013-01-05 04:11:00,72.2,71.0,30.14,East,81,1.0,5.0,96,0.01,,FEW,0.01,0.00,VWS V14.01,2013-01-05 09:11:00,
2013-01-05 04:15:00,72.1,70.9,30.14,East,90,1.0,1.0,96,0.00,,FEW,0.01,0.00,VWS V14.01,2013-01-05 09:15:00,
2013-01-05 04:16:00,72.1,70.9,30.14,ENE,62,0.0,3.0,96,0.00,,FEW,0.01,0.00,VWS V14.01,2013-01-05 09:16:00,
2013-01-05 04:17:00,72.1,70.9,30.14,ENE,62,1.0,3.0,96,0.00,,FEW,0.01,0.00,VWS V14.01,2013-01-05 09:17:00,
2013-01-05 04:20:00,72.0,70.8,30.14,ENE,70,1.0,3.0,96,0.00,,FEW,0.01,0.00,VWS V14.01,2013-01-05 09:20:00,
2013-01-05 04:21:00,72.0,70.8,30.14,NE,37,0.0,3.0,96,0.00,,FEW,0.01,0.00,VWS V14.01,2013-01-05 09:21:00,
2013-01-05 04:22:00,72.0,70.8,30.14,NE,42,1.0,1.0,96,0.00,,FEW,0.01,0.00,VWS V14.01,2013-01-05 09:22:00,
2013-01-05 04:25:00,71.9,70.7,30.14,East,85,1.0,1.0,96,0.00,,FEW,0.01,0.00,VWS V14.01,2013-01-05 09:25:00,
2013-01-05 04:26:00,71.9,70.7,30.14,ENE,62,1.0,2.0,96,0.00,,FEW,0.01,0.00,VWS V14.01,2013-01-05 09:26:00,
2013-01-05 04:27:00,71.9,70.7,30.14,ENE,70,1.0,2.0,96,0.00,,FEW,0.01,0.00,VWS V14.01,2013-01-05 09:27:00,
2013-01-05 04:30:00,71.9,70.7,30.14,NE,47,1.0,4.0,96,0.00,,FEW,0.01,0.00,VWS V14.01,2013-01-05 09:30:00,
2013-01-05 04:31:00,71.9,70.7,30.14,East,84,0.0,4.0,96,0.00,,FEW,0.01,0.00,VWS V14.01,2013-01-05 09:31:00,
2013-01-05 04:32:00,71.9,70.7,30.14,ESE,107,3.0,3.0,96,0.00,,FEW,0.01,0.00,VWS V14.01,2013-01-05 09:32:00,
2013-01-05 04:35:00,71.9,70.7,30.14,ENE,64,1.0,3.0,96,0.00,,FEW,0.01,0.00,VWS V14.01,2013-01-05 09:35:00,
2013-01-05 04:36:00,71.9,70.7,30.14,East,100,3.0,3.0,96,0.00,,FEW,0.01,0.00,VWS V14.01,2013-01-05 09:36:00,
2013-01-05 04:37:00,71.9,70.7,30.14,NE,47,2.0,3.0,96,0.00,,FEW,0.01,0.00,VWS V14.01,2013-01-05 09:37:00,
2013-01-05 04:40:00,71.9,70.7,30.14,East,90,3.0,3.0,96,0.00,,FEW,0.01,0.00,VWS V14.01,2013-01-05 09:40:00,
2013-01-05 04:41:00,71.9,70.7,30.14,East,90,2.0,3.0,96,0.00,,FEW,0.01,0.00,VWS V14.01,2013-01-05 09:41:00,
2013-01-05 04:42:00,71.9,70.7,30.14,East,92,1.0,1.0,96,0.00,,FEW,0.01,0.00,VWS V14.01,2013-01-05 09:42:00,
2013-01-05 04:46:00,71.9,70.7,30.14,East,88,2.0,3.0,96,0.00,,FEW,0.01,0.00,VWS V14.01,2013-01-05 09:46:00,
2013-01-05 04:47:00,71.9,70.7,30.14,ENE,59,2.0,4.0,96,0.00,,FEW,0.01,0.00,VWS V14.01,2013-01-05 09:47:00,
2013-01-05 04:50:00,72.0,70.8,30.14,ENE,75,1.0,4.0,96,0.00,,FEW,0.01,0.00,VWS V14.01,2013-01-05 09:50:00,
2013-01-05 04:51:00,72.0,70.8,30.14,ENE,76,3.0,4.0,96,0.00,,FEW,0.01,0.00,VWS V14.01,2013-01-05 09:51:00,
2013-01-05 04:52:00,72.0,70.8,30.14,East,91,2.0,3.0,96,0.00,,FEW,0.01,0.00,VWS V14.01,2013-01-05 09:52:00,
2013-01-05 04:56:00,71.9,70.7,30.14,ENE,72,1.0,3.0,96,0.00,,FEW,0.01,0.00,VWS V14.01,2013-01-05 09:56:00,
2013-01-05 04:57:00,71.9,70.7,30.14,East,92,0.0,3.0,96,0.00,,FEW,0.01,0.00,VWS V14.01,2013-01-05 09:57:00,
2013-01-05 05:00:00,71.9,70.7,30.14,ESE,111,1.0,3.0,96,0.00,,FEW,0.01,0.00,VWS V14.01,2013-01-05 10:00:00,
2013-01-05 05:01:00,71.9,70.7,30.14,ESE,111,0.0,1.0,96,0.00,,FEW,0.01,0.00,VWS V14.01,2013-01-05 10:01:00,
2013-01-05 05:02:00,71.9,70.7,30.14,East,86,1.0,1.0,96,0.00,,FEW,0.01,0.00,VWS V14.01,2013-01-05 10:02:00,
2013-01-05 05:03:00,71.8,70.6,30.14,East,84,1.0,3.0,96,0.00,,FEW,0.01,0.00,VWS V14.01,2013-01-05 10:03:00,
2013-01-05 05:06:00,71.8,70.6,30.14,ENE,69,0.0,3.0,96,0.00,,FEW,0.01,0.00,VWS V14.01,2013-01-05 10:06:00,
2013-01-05 05:07:00,71.8,70.6,30.14,ENE,69,0.0,3.0,96,0.00,,FEW,0.01,0.00,VWS V14.01,2013-01-05 10:07:00,
2013-01-05 05:08:00,71.8,70.6,30.14,ENE,73,0.0,3.0,96,0.00,,FEW,0.01,0.00,VWS V14.01,2013-01-05 10:08:00,
2013-01-05 05:10:00,71.8,70.6,30.14,ENE,74,0.0,3.0,96,0.00,,FEW,0.01,0.00,VWS V14.01,2013-01-05 10:10:00,
2013-01-05 05:11:00,71.8,70.6,30.14,ENE,74,0.0,0.0,96,0.00,,FEW,0.01,0.00,VWS V14.01,2013-01-05 10:11:00,
2013-01-05 05:12:00,71.7,70.5,30.14,ENE,74,0.0,1.0,96,0.00,,FEW,0.01,0.00,VWS V14.01,2013-01-05 10:12:00,
2013-01-05 05:13:00,71.7,70.5,30.14,ENE,73,0.0,1.0,96,0.00,,FEW,0.01,0.00,VWS V14.01,2013-01-05 10:13:00,
2013-01-05 05:16:00,71.7,70.5,30.14,ENE,60,0.0,3.0,96,0.00,,FEW,0.01,0.00,VWS V14.01,2013-01-05 10:16:00,
2013-01-05 05:17:00,71.7,70.5,30.14,ENE,60,0.0,3.0,96,0.00,,FEW,0.01,0.00,VWS V14.01,2013-01-05 10:17:00,
2013-01-05 05:18:00,71.7,70.5,30.14,ENE,58,0.0,3.0,96,0.00,,FEW,0.01,0.00,VWS V14.01,2013-01-05 10:18:00,
2013-01-05 05:20:00,71.7,70.5,30.14,ENE,72,1.0,3.0,96,0.00,,FEW,0.01,0.00,VWS V14.01,2013-01-05 10:20:00,
2013-01-05 05:21:00,71.7,70.5,30.14,ENE,72,0.0,2.0,96,0.00,,FEW,0.01,0.00,VWS V14.01,2013-01-05 10:21:00,
2013-01-05 05:22:00,71.7,70.5,30.14,ENE,69,0.0,2.0,96,0.00,,FEW,0.01,0.00,VWS V14.01,2013-01-05 10:22:00,
2013-01-05 05:24:00,71.7,70.5,30.14,ENE,65,1.0,2.0,96,0.00,,FEW,0.01,0.00,VWS V14.01,2013-01-05 10:24:00,
2013-01-05 05:26:00,71.7,70.5,30.14,East,96,0.0,2.0,96,0.00,,FEW,0.01,0.00,VWS V14.01,2013-01-05 10:26:00,
2013-01-05 05:27:00,71.7,70.5,30.14,East,96,0.0,2.0,96,0.00,,FEW,0.01,0.00,VWS V14.01,2013-01-05 10:27:00,
2013-01-05 05:29:00,71.6,70.4,30.14,East,80,0.0,2.0,96,0.00,,FEW,0.01,0.00,VWS V14.01,2013-01-05 10:29:00,
2013-01-05 05:30:00,71.6,70.4,30.15,East,82,0.0,2.0,96,0.00,,FEW,0.01,0.00,VWS V14.01,2013-01-05 10:30:00,
2013-01-05 05:32:00,71.6,70.4,30.15,ESE,103,1.0,3.0,96,0.00,,FEW,0.01,0.00,VWS V14.01,2013-01-05 10:32:00,
2013-01-05 05:34:00,71.6,70.4,30.15,East,101,2.0,3.0,96,0.00,,FEW,0.01,0.00,VWS V14.01,2013-01-05 10:34:00,
2013-01-05 05:37:00,71.7,70.5,30.15,East,83,1.0,3.0,96,0.00,,FEW,0.01,0.00,VWS V14.01,2013-01-05 10:37:00,
2013-01-05 05:39:00,71.7,70.5,30.15,East,96,0.0,3.0,96,0.00,,FEW,0.01,0.00,VWS V14.01,2013-01-05 10:39:00,
2013-01-05 05:40:00,71.7,70.5,30.15,East,93,0.0,3.0,96,0.00,,FEW,0.01,0.00,VWS V14.01,2013-01-05 10:40:00,
2013-01-05 05:42:00,71.7,70.5,30.15,East,81,0.0,2.0,96,0.00,,FEW,0.01,0.00,VWS V14.01,2013-01-05 10:42:00,
2013-01-05 05:44:00,71.7,70.5,30.15,ENE,77,0.0,2.0,96,0.00,,FEW,0.01,0.00,VWS V14.01,2013-01-05 10:44:00,
2013-01-05 05:47:00,71.7,70.5,30.15,East,81,1.0,2.0,96,0.00,,FEW,0.01,0.00,VWS V14.01,2013-01-05 10:47:00,
2013-01-05 05:49:00,71.7,70.5,30.15,East,83,1.0,3.0,96,0.00,,FEW,0.01,0.00,VWS V14.01,2013-01-05 10:49:00,
2013-01-05 05:50:00,71.7,70.5,30.15,East,87,0.0,3.0,96,0.00,,FEW,0.01,0.00,VWS V14.01,2013-01-05 10:50:00,
2013-01-05 05:52:00,71.7,70.5,30.15,ENE,72,0.0,2.0,96,0.00,,FEW,0.01,0.00,VWS V14.01,2013-01-05 10:52:00,
2013-01-05 05:53:00,71.7,70.5,30.15,NE,42,0.0,2.0,96,0.00,,FEW,0.01,0.00,VWS V14.01,2013-01-05 10:53:00,
2013-01-05 05:54:00,71.7,70.5,30.15,ENE,64,1.0,3.0,96,0.00,,FEW,0.01,0.00,VWS V14.01,2013-01-05 10:54:00,
2013-01-05 05:57:00,71.7,70.5,30.15,ESE,113,1.0,3.0,96,0.00,,FEW,0.01,0.00,VWS V14.01,2013-01-05 10:57:00,
2013-01-05 05:58:00,71.7,70.5,30.15,East,88,0.0,3.0,96,0.00,,FEW,0.01,0.00,VWS V14.01,2013-01-05 10:58:00,
2013-01-05 05:59:00,71.7,70.5,30.15,ENE,70,2.0,3.0,96,0.00,,FEW,0.01,0.00,VWS V14.01,2013-01-05 10:59:00,
2013-01-05 06:00:00,71.8,70.6,30.15,ESE,104,2.0,3.0,96,0.00,,FEW,0.01,0.00,VWS V14.01,2013-01-05 11:00:00,
2013-01-05 06:02:00,71.8,70.6,30.15,ENE,69,0.0,2.0,96,0.00,,FEW,0.01,0.00,VWS V14.01,2013-01-05 11:02:00,
2013-01-05 06:03:00,71.8,70.6,30.15,ENE,66,1.0,2.0,96,0.00,,FEW,0.01,0.00,VWS V14.01,2013-01-05 11:03:00,
2013-01-05 06:04:00,71.8,70.6,30.15,ENE,70,0.0,2.0,96,0.00,,FEW,0.01,0.00,VWS V14.01,2013-01-05 11:04:00,
2013-01-05 06:07:00,71.9,70.7,30.15,ESE,109,1.0,2.0,96,0.00,,FEW,0.01,0.00,VWS V14.01,2013-01-05 11:07:00,
2013-01-05 06:08:00,71.9,70.7,30.15,ENE,69,0.0,2.0,96,0.00,,FEW,0.01,0.00,VWS V14.01,2013-01-05 11:08:00,
2013-01-05 06:09:00,71.9,70.7,30.15,ENE,72,1.0,2.0,96,0.00,,FEW,0.01,0.00,VWS V14.01,2013-01-05 11:09:00,
2013-01-05 06:10:00,72.0,70.8,30.15,East,92,1.0,2.0,96,0.00,,FEW,0.01,0.00,VWS V14.01,2013-01-05 11:10:00,
2013-01-05 06:12:00,72.0,70.8,30.15,East,97,0.0,2.0,96,0.00,,FEW,0.01,0.00,VWS V14.01,2013-01-05 11:12:00,
2013-01-05 06:13:00,72.0,70.8,30.15,East,98,1.0,3.0,96,0.00,,FEW,0.01,0.00,VWS V14.01,2013-01-05 11:13:00,
2013-01-05 06:14:00,72.0,70.8,30.15,ESE,113,1.0,3.0,96,0.00,,FEW,0.01,0.00,VWS V14.01,2013-01-05 11:14:00,
2013-01-05 06:17:00,72.0,70.8,30.16,ENE,72,3.0,3.0,96,0.00,,FEW,0.01,0.00,VWS V14.01,2013-01-05 11:17:00,
2013-01-05 06:18:00,72.1,70.9,30.16,East,85,0.0,3.0,96,0.00,,FEW,0.01,0.00,VWS V14.01,2013-01-05 11:18:00,
2013-01-05 06:19:00,72.1,70.9,30.16,East,94,2.0,5.0,96,0.00,,FEW,0.01,0.00,VWS V14.01,2013-01-05 11:19:00,
2013-01-05 06:20:00,72.1,70.9,30.16,ESE,111,2.0,5.0,96,0.00,,FEW,0.01,0.00,VWS V14.01,2013-01-05 11:20:00,
2013-01-05 06:22:00,72.2,71.0,30.16,East,89,1.0,3.0,96,0.00,,FEW,0.01,0.00,VWS V14.01,2013-01-05 11:22:00,
2013-01-05 06:23:00,72.2,71.0,30.16,ENE,76,2.0,3.0,96,0.00,,FEW,0.01,0.00,VWS V14.01,2013-01-05 11:23:00,
2013-01-05 06:24:00,72.2,71.0,30.16,East,90,2.0,5.0,96,0.00,,FEW,0.01,0.00,VWS V14.01,2013-01-05 11:24:00,
2013-01-05 06:27:00,72.3,71.1,30.16,ENE,76,1.0,5.0,96,0.00,,FEW,0.01,0.00,VWS V14.01,2013-01-05 11:27:00,
2013-01-05 06:28:00,72.3,71.1,30.16,ENE,73,1.0,5.0,96,0.00,,FEW,0.01,0.00,VWS V14.01,2013-01-05 11:28:00,
2013-01-05 06:29:00,72.4,71.2,30.16,East,96,2.0,5.0,96,0.00,,FEW,0.01,0.00,VWS V14.01,2013-01-05 11:29:00,
2013-01-05 06:30:00,72.4,71.2,30.16,East,80,2.0,5.0,96,0.00,,FEW,0.01,0.00,VWS V14.01,2013-01-05 11:30:00,
2013-01-05 06:32:00,72.4,71.2,30.16,ENE,74,1.0,4.0,96,0.00,,FEW,0.01,0.00,VWS V14.01,2013-01-05 11:32:00,
2013-01-05 06:33:00,72.4,71.2,30.16,ENE,75,4.0,4.0,96,0.00,,FEW,0.01,0.00,VWS V14.01,2013-01-05 11:33:00,
2013-01-05 06:34:00,72.5,71.3,30.16,ENE,76,2.0,4.0,96,0.00,,FEW,0.01,0.00,VWS V14.01,2013-01-05 11:34:00,
2013-01-05 06:35:00,72.5,71.3,30.16,East,80,0.0,5.0,96,0.00,,FEW,0.01,0.00,VWS V14.01,2013-01-05 11:35:00,
2013-01-05 06:37:00,72.6,71.4,30.16,ENE,78,2.0,5.0,96,0.00,,FEW,0.01,0.00,VWS V14.01,2013-01-05 11:37:00,
2013-01-05 06:38:00,72.5,71.3,30.16,ENE,61,2.0,5.0,96,0.00,,FEW,0.01,0.00,VWS V14.01,2013-01-05 11:38:00,
2013-01-05 06:39:00,72.6,71.4,30.16,ENE,61,0.0,5.0,96,0.00,,FEW,0.01,0.00,VWS V14.01,2013-01-05 11:39:00,
2013-01-05 06:40:00,72.6,71.4,30.16,ENE,64,1.0,5.0,96,0.00,,FEW,0.01,0.00,VWS V14.01,2013-01-05 11:40:00,
2013-01-05 06:42:00,72.6,71.4,30.16,East,82,3.0,3.0,96,0.00,,FEW,0.01,0.00,VWS V14.01,2013-01-05 11:42:00,
2013-01-05 06:43:00,72.6,71.4,30.16,East,80,0.0,3.0,96,0.00,,FEW,0.01,0.00,VWS V14.01,2013-01-05 11:43:00,
2013-01-05 06:44:00,72.6,71.4,30.16,ENE,65,1.0,3.0,96,0.00,,FEW,0.01,0.00,VWS V14.01,2013-01-05 11:44:00,
2013-01-05 06:45:00,72.6,71.4,30.16,East,82,2.0,3.0,96,0.00,,FEW,0.01,0.00,VWS V14.01,2013-01-05 11:45:00,
2013-01-05 06:48:00,72.6,71.4,30.16,East,84,2.0,5.0,96,0.00,,FEW,0.01,0.00,VWS V14.01,2013-01-05 11:48:00,
2013-01-05 06:49:00,72.6,71.4,30.16,NE,48,0.0,5.0,96,0.00,,FEW,0.01,0.00,VWS V14.01,2013-01-05 11:49:00,
2013-01-05 06:50:00,72.6,71.4,30.16,NE,48,1.0,5.0,96,0.00,,FEW,0.01,0.00,VWS V14.01,2013-01-05 11:50:00,
2013-01-05 06:53:00,72.6,71.4,30.16,NE,49,1.0,2.0,96,0.00,,FEW,0.01,0.00,VWS V14.01,2013-01-05 11:53:00,
2013-01-05 06:54:00,72.6,71.4,30.16,East,82,2.0,3.0,96,0.00,,FEW,0.01,0.00,VWS V14.01,2013-01-05 11:54:00,
2013-01-05 06:55:00,72.6,71.4,30.16,ENE,57,0.0,4.0,96,0.00,,FEW,0.01,0.00,VWS V14.01,2013-01-05 11:55:00,
2013-01-05 06:58:00,72.5,71.3,30.16,East,92,3.0,4.0,96,0.00,,FEW,0.01,0.00,VWS V14.01,2013-01-05 11:58:00,
2013-01-05 06:59:00,72.5,71.3,30.16,NE,46,1.0,4.0,96,0.00,,FEW,0.01,0.00,VWS V14.01,2013-01-05 11:59:00,
2013-01-05 07:00:00,72.5,71.3,30.16,NE,46,1.0,4.0,96,0.00,,FEW,0.01,0.00,VWS V14.01,2013-01-05 12:00:00,
2013-01-05 07:03:00,72.5,71.3,30.16,ENE,57,2.0,3.0,96,0.00,,FEW,0.01,0.00,VWS V14.01,2013-01-05 12:03:00,
2013-01-05 07:04:00,72.5,71.3,30.16,ENE,73,3.0,3.0,96,0.00,,FEW,0.01,0.00,VWS V14.01,2013-01-05 12:04:00,
2013-01-05 07:05:00,72.5,71.3,30.16,ENE,72,1.0,3.0,96,0.00,,FEW,0.01,0.00,VWS V14.01,2013-01-05 12:05:00,
2013-01-05 07:08:00,72.5,71.3,30.16,ENE,73,0.0,3.0,96,0.00,,FEW,0.01,0.00,VWS V14.01,2013-01-05 12:08:00,
2013-01-05 07:09:00,72.5,71.3,30.16,ENE,73,0.0,3.0,96,0.00,,FEW,0.01,0.00,VWS V14.01,2013-01-05 12:09:00,
2013-01-05 07:10:00,72.5,71.3,30.16,ENE,62,0.0,3.0,96,0.00,,FEW,0.01,0.00,VWS V14.01,2013-01-05 12:10:00,
2013-01-05 07:13:00,72.5,71.3,30.16,ENE,57,1.0,3.0,96,0.00,,FEW,0.01,5.00,VWS V14.01,2013-01-05 12:13:00,
2013-01-05 07:14:00,72.5,71.3,30.16,East,89,2.0,3.0,96,0.00,,FEW,0.01,5.00,VWS V14.01,2013-01-05 12:14:00,
2013-01-05 07:15:00,72.5,71.3,30.16,East,92,5.0,5.0,96,0.00,,FEW,0.01,5.00,VWS V14.01,2013-01-05 12:15:00,
2013-01-05 07:18:00,72.5,71.3,30.17,East,79,2.0,5.0,96,0.00,,FEW,0.01,7.00,VWS V14.01,2013-01-05 12:18:00,
2013-01-05 07:19:00,72.5,71.3,30.17,East,82,0.0,5.0,96,0.00,,FEW,0.01,9.00,VWS V14.01,2013-01-05 12:19:00,
2013-01-05 07:20:00,72.5,71.3,30.17,ENE,74,0.0,5.0,96,0.00,,FEW,0.01,9.00,VWS V14.01,2013-01-05 12:20:00,
2013-01-05 07:23:00,72.5,71.3,30.17,ENE,69,1.0,3.0,96,0.00,,FEW,0.01,11.00,VWS V14.01,2013-01-05 12:23:00,
2013-01-05 07:24:00,72.5,71.3,30.17,ENE,69,0.0,3.0,96,0.00,,FEW,0.01,11.00,VWS V14.01,2013-01-05 12:24:00,
2013-01-05 07:25:00,72.5,71.3,30.17,ENE,78,1.0,3.0,96,0.00,,FEW,0.01,11.00,VWS V14.01,2013-01-05 12:25:00,
2013-01-05 07:28:00,72.6,71.4,30.17,NE,51,3.0,3.0,96,0.00,,FEW,0.01,16.00,VWS V14.01,2013-01-05 12:28:00,
2013-01-05 07:29:00,72.6,71.4,30.17,East,99,1.0,3.0,96,0.00,,FEW,0.01,21.00,VWS V14.01,2013-01-05 12:29:00,
2013-01-05 07:30:00,72.6,71.4,30.17,NE,54,2.0,3.0,96,0.00,,FEW,0.01,25.00,VWS V14.01,2013-01-05 12:30:00,
2013-01-05 07:33:00,72.6,71.4,30.17,ENE,67,1.0,3.0,96,0.00,,FEW,0.01,33.00,VWS V14.01,2013-01-05 12:33:00,
2013-01-05 07:35:00,72.7,71.5,30.17,ENE,77,2.0,3.0,96,0.00,,FEW,0.01,32.00,VWS V14.01,2013-01-05 12:35:00,
2013-01-05 07:36:00,72.6,71.4,30.17,ENE,67,2.0,3.0,96,0.00,,FEW,0.01,47.00,VWS V14.01,2013-01-05 12:36:00,
2013-01-05 07:38:00,72.7,71.5,30.17,NE,34,2.0,3.0,96,0.00,,FEW,0.01,40.00,VWS V14.01,2013-01-05 12:38:00,
2013-01-05 07:40:00,72.7,71.5,30.17,NE,53,1.0,3.0,96,0.00,,FEW,0.01,39.00,VWS V14.01,2013-01-05 12:40:00,
2013-01-05 07:41:00,72.8,71.6,30.17,ENE,59,1.0,3.0,96,0.00,,FEW,0.01,25.00,VWS V14.01,2013-01-05 12:41:00,
2013-01-05 07:43:00,72.8,71.6,30.17,ENE,57,4.0,4.0,96,0.00,,FEW,0.01,76.00,VWS V14.01,2013-01-05 12:43:00,
2013-01-05 07:45:00,72.9,71.7,30.17,NE,52,3.0,4.0,96,0.00,,FEW,0.01,84.00,VWS V14.01,2013-01-05 12:45:00,
2013-01-05 07:46:00,72.9,71.7,30.18,East,83,1.0,4.0,96,0.00,,FEW,0.01,84.00,VWS V14.01,2013-01-05 12:46:00,
2013-01-05 07:48:00,73.0,71.8,30.18,ENE,73,1.0,4.0,96,0.00,,FEW,0.01,84.00,VWS V14.01,2013-01-05 12:48:00,
2013-01-05 07:50:00,73.0,71.8,30.18,NE,55,2.0,4.0,96,0.00,,FEW,0.01,100.00,VWS V14.01,2013-01-05 12:50:00,
2013-01-05 07:51:00,73.1,71.9,30.18,ENE,61,2.0,4.0,96,0.00,,FEW,0.01,105.00,VWS V14.01,2013-01-05 12:51:00,
2013-01-05 07:54:00,73.2,72.0,30.18,ENE,78,2.0,3.0,96,0.00,,FEW,0.01,44.00,VWS V14.01,2013-01-05 12:54:00,
2013-01-05 07:55:00,73.2,72.0,30.18,ESE,105,4.0,4.0,96,0.00,,FEW,0.01,40.00,VWS V14.01,2013-01-05 12:55:00,
2013-01-05 07:56:00,73.2,72.0,30.18,East,90,2.0,4.0,96,0.00,,FEW,0.01,79.00,VWS V14.01,2013-01-05 12:56:00,
2013-01-05 07:59:00,73.3,72.1,30.18,ESE,107,3.0,6.0,96,0.00,,FEW,0.01,116.00,VWS V14.01,2013-01-05 12:59:00,
2013-01-05 08:00:00,73.3,72.1,30.18,ENE,69,2.0,6.0,96,0.00,,FEW,0.01,76.00,VWS V14.01,2013-01-05 13:00:00,
2013-01-05 08:01:00,73.3,72.1,30.18,NNE,22,4.0,6.0,96,0.00,,FEW,0.01,54.00,VWS V14.01,2013-01-05 13:01:00,
2013-01-05 08:04:00,73.5,72.3,30.18,ENE,65,1.0,4.0,96,0.00,,FEW,0.01,128.00,VWS V14.01,2013-01-05 13:04:00,
2013-01-05 08:05:00,73.5,72.3,30.18,ENE,71,0.0,4.0,96,0.00,,FEW,0.01,141.00,VWS V14.01,2013-01-05 13:05:00,
2013-01-05 08:06:00,73.5,72.3,30.18,ENE,71,0.0,4.0,96,0.00,,FEW,0.01,141.00,VWS V14.01,2013-01-05 13:06:00,
2013-01-05 08:09:00,73.7,72.5,30.18,ENE,67,2.0,4.0,96,0.00,,FEW,0.01,142.00,VWS V14.01,2013-01-05 13:09:00,
2013-01-05 08:10:00,73.7,72.5,30.18,ENE,67,5.0,5.0,96,0.00,,FEW,0.01,35.00,VWS V14.01,2013-01-05 13:10:00,
2013-01-05 08:11:00,73.7,72.5,30.18,ENE,70,5.0,5.0,96,0.00,,FEW,0.01,33.00,VWS V14.01,2013-01-05 13:11:00,
2013-01-05 08:14:00,73.8,72.3,30.18,ENE,63,2.0,5.0,95,0.00,,FEW,0.01,35.00,VWS V14.01,2013-01-05 13:14:00,
2013-01-05 08:15:00,73.8,72.3,30.18,NE,46,2.0,5.0,95,0.00,,FEW,0.01,40.00,VWS V14.01,2013-01-05 13:15:00,
2013-01-05 08:16:00,73.8,72.3,30.18,ENE,67,3.0,5.0,95,0.00,,FEW,0.01,76.00,VWS V14.01,2013-01-05 13:16:00,
2013-01-05 08:19:00,73.9,72.4,30.18,ESE,106,2.0,5.0,95,0.00,,FEW,0.01,181.00,VWS V14.01,2013-01-05 13:19:00,
2013-01-05 08:20:00,74.0,72.5,30.18,NE,55,2.0,5.0,95,0.00,,FEW,0.01,174.00,VWS V14.01,2013-01-05 13:20:00,
2013-01-05 08:21:00,74.0,72.5,30.18,NE,55,2.0,5.0,95,0.00,,FEW,0.01,174.00,VWS V14.01,2013-01-05 13:21:00,
2013-01-05 08:24:00,74.2,72.7,30.18,NE,49,2.0,6.0,95,0.00,,FEW,0.01,229.00,VWS V14.01,2013-01-05 13:24:00,
2013-01-05 08:26:00,74.4,73.2,30.18,ENE,67,3.0,6.0,96,0.00,,FEW,0.01,221.00,VWS V14.01,2013-01-05 13:26:00,
2013-01-05 08:29:00,74.6,73.1,30.18,ENE,77,2.0,6.0,95,0.00,,FEW,0.01,220.00,VWS V14.01,2013-01-05 13:29:00,
2013-01-05 08:30:00,74.7,73.2,30.19,NE,55,1.0,6.0,95,0.00,,FEW,0.01,62.00,VWS V14.01,2013-01-05 13:30:00,
2013-01-05 08:31:00,74.7,73.2,30.19,NE,53,4.0,6.0,95,0.00,,FEW,0.01,211.00,VWS V14.01,2013-01-05 13:31:00,
2013-01-05 08:34:00,74.8,73.3,30.19,NNE,20,4.0,4.0,95,0.00,,FEW,0.01,98.00,VWS V14.01,2013-01-05 13:34:00,
2013-01-05 08:36:00,74.8,73.3,30.19,ENE,59,1.0,4.0,95,0.00,,FEW,0.01,77.00,VWS V14.01,2013-01-05 13:36:00,
2013-01-05 08:39:00,74.7,72.9,30.19,NE,35,1.0,6.0,94,0.00,,FEW,0.01,74.00,VWS V14.01,2013-01-05 13:39:00,
2013-01-05 08:40:00,74.7,72.9,30.19,ENE,69,3.0,6.0,94,0.00,,FEW,0.01,174.00,VWS V14.01,2013-01-05 13:40:00,
2013-01-05 08:41:00,74.7,72.9,30.19,East,86,1.0,6.0,94,0.00,,FEW,0.01,174.00,VWS V14.01,2013-01-05 13:41:00,
2013-01-05 08:44:00,74.9,73.1,30.19,NNE,26,2.0,8.0,94,0.00,,FEW,0.01,413.00,VWS V14.01,2013-01-05 13:44:00,
2013-01-05 08:46:00,75.1,73.6,30.19,ENE,64,5.0,8.0,95,0.00,,FEW,0.01,287.00,VWS V14.01,2013-01-05 13:46:00,
2013-01-05 08:47:00,75.2,73.4,30.19,ENE,68,2.0,8.0,94,0.00,,FEW,0.01,200.00,VWS V14.01,2013-01-05 13:47:00,
2013-01-05 08:49:00,75.3,73.5,30.19,North,10,1.0,8.0,94,0.00,,FEW,0.01,121.00,VWS V14.01,2013-01-05 13:49:00,
2013-01-05 08:50:00,75.3,73.1,30.19,NE,49,6.0,8.0,93,0.00,,FEW,0.01,132.00,VWS V14.01,2013-01-05 13:50:00,
2013-01-05 08:51:00,75.3,73.1,30.19,NE,36,6.0,8.0,93,0.00,,FEW,0.01,132.00,VWS V14.01,2013-01-05 13:51:00,
2013-01-05 08:52:00,75.2,73.0,30.19,NE,44,6.0,7.0,93,0.00,,FEW,0.01,111.00,VWS V14.01,2013-01-05 13:52:00,
2013-01-05 08:54:00,74.9,72.7,30.19,NE,36,5.0,12.0,93,0.00,,FEW,0.01,76.00,VWS V14.01,2013-01-05 13:54:00,
2013-01-05 08:56:00,74.7,72.6,30.19,NNE,24,4.0,12.0,93,0.00,,FEW,0.01,84.00,VWS V14.01,2013-01-05 13:56:00,
2013-01-05 08:57:00,74.7,72.6,30.19,NNE,24,4.0,12.0,93,0.00,,FEW,0.01,100.00,VWS V14.01,2013-01-05 13:57:00,
2013-01-05 08:59:00,74.5,72.3,30.19,ENE,67,3.0,12.0,93,0.00,,FEW,0.01,90.00,VWS V14.01,2013-01-05 13:59:00,
2013-01-05 09:00:00,74.4,72.2,30.19,NNE,20,6.0,12.0,93,0.00,,FEW,0.01,76.00,VWS V14.01,2013-01-05 14:00:00,
2013-01-05 09:01:00,74.4,72.2,30.19,NNE,30,5.0,12.0,93,0.00,,FEW,0.01,76.00,VWS V14.01,2013-01-05 14:01:00,
2013-01-05 09:02:00,74.3,72.2,30.19,NE,44,5.0,8.0,93,0.00,,FEW,0.01,60.00,VWS V14.01,2013-01-05 14:02:00,
2013-01-05 09:04:00,74.1,71.9,30.19,NE,42,6.0,10.0,93,0.00,,FEW,0.01,46.00,VWS V14.01,2013-01-05 14:04:00,
2013-01-05 09:06:00,74.0,71.8,30.19,NE,34,7.0,10.0,93,0.00,,FEW,0.01,47.00,VWS V14.01,2013-01-05 14:06:00,
2013-01-05 09:07:00,73.9,71.8,30.19,NE,50,7.0,10.0,93,0.00,,FEW,0.01,60.00,VWS V14.01,2013-01-05 14:07:00,
2013-01-05 09:09:00,73.8,72.0,30.19,NNE,32,6.0,13.0,94,0.00,,FEW,0.01,65.00,VWS V14.01,2013-01-05 14:09:00,
2013-01-05 09:10:00,73.7,71.9,30.19,NNE,23,4.0,13.0,94,0.00,,FEW,0.01,86.00,VWS V14.01,2013-01-05 14:10:00,
2013-01-05 09:11:00,73.7,71.9,30.19,NE,34,6.0,8.0,94,0.00,,FEW,0.01,88.00,VWS V14.01,2013-01-05 14:11:00,
2013-01-05 09:12:00,73.7,71.9,30.19,NE,41,4.0,8.0,94,0.00,,FEW,0.01,88.00,VWS V14.01,2013-01-05 14:12:00,
2013-01-05 09:13:00,73.7,71.9,30.19,NE,43,5.0,8.0,94,0.00,,FEW,0.01,83.00,VWS V14.01,2013-01-05 14:13:00,
2013-01-05 09:14:00,73.7,71.9,30.19,NNE,30,8.0,9.0,94,0.00,,FEW,0.01,79.00,VWS V14.01,2013-01-05 14:14:00,
2013-01-05 09:16:00,73.6,71.8,30.20,NE,47,7.0,11.0,94,0.00,,FEW,0.01,114.00,VWS V14.01,2013-01-05 14:16:00,
2013-01-05 09:17:00,73.6,71.8,30.20,NE,53,7.0,11.0,94,0.00,,FEW,0.01,134.00,VWS V14.01,2013-01-05 14:17:00,
2013-01-05 09:18:00,73.6,71.8,30.20,NE,50,6.0,11.0,94,0.00,,FEW,0.01,134.00,VWS V14.01,2013-01-05 14:18:00,
2013-01-05 09:19:00,73.5,71.7,30.20,NE,44,6.0,13.0,94,0.00,,FEW,0.01,160.00,VWS V14.01,2013-01-05 14:19:00,
2013-01-05 09:20:00,73.5,71.7,30.20,ENE,58,12.0,13.0,94,0.00,,FEW,0.01,142.00,VWS V14.01,2013-01-05 14:20:00,
2013-01-05 09:21:00,73.5,71.7,30.20,ENE,58,12.0,13.0,94,0.00,,FEW,0.01,142.00,VWS V14.01,2013-01-05 14:21:00,
2013-01-05 09:22:00,73.4,71.6,30.20,NE,40,9.0,12.0,94,0.00,,FEW,0.01,148.00,VWS V14.01,2013-01-05 14:22:00,
2013-01-05 09:23:00,73.4,71.6,30.20,NE,39,8.0,12.0,94,0.00,,FEW,0.01,223.00,VWS V14.01,2013-01-05 14:23:00,
2013-01-05 09:24:00,73.4,71.6,30.20,NNE,33,7.0,13.0,94,0.00,,FEW,0.01,294.00,VWS V14.01,2013-01-05 14:24:00,
2013-01-05 09:26:00,73.5,71.7,30.20,NE,35,4.0,13.0,94,0.00,,FEW,0.01,258.00,VWS V14.01,2013-01-05 14:26:00,
2013-01-05 09:27:00,73.5,72.0,30.20,NE,55,7.0,13.0,95,0.00,,FEW,0.01,257.00,VWS V14.01,2013-01-05 14:27:00,
2013-01-05 09:28:00,73.6,72.1,30.20,NE,46,8.0,13.0,95,0.00,,FEW,0.01,225.00,VWS V14.01,2013-01-05 14:28:00,
2013-01-05 09:29:00,73.6,72.1,30.20,ENE,62,5.0,13.0,95,0.00,,FEW,0.01,163.00,VWS V14.01,2013-01-05 14:29:00,
2013-01-05 09:30:00,73.6,71.8,30.20,NE,51,9.0,13.0,94,0.00,,FEW,0.01,132.00,VWS V14.01,2013-01-05 14:30:00,
2013-01-05 09:31:00,73.6,71.8,30.20,NE,42,6.0,9.0,94,0.00,,FEW,0.01,139.00,VWS V14.01,2013-01-05 14:31:00,
2013-01-05 09:32:00,73.6,71.8,30.20,NE,38,3.0,9.0,94,0.00,,FEW,0.01,144.00,VWS V14.01,2013-01-05 14:32:00,
2013-01-05 09:33:00,73.6,72.1,30.20,NE,55,3.0,9.0,95,0.00,,FEW,0.01,144.00,VWS V14.01,2013-01-05 14:33:00,
2013-01-05 09:34:00,73.7,72.2,30.20,NNE,28,9.0,10.0,95,0.00,,FEW,0.01,348.00,VWS V14.01,2013-01-05 14:34:00,
2013-01-05 09:36:00,73.8,72.3,30.20,East,82,10.0,11.0,95,0.00,,FEW,0.01,251.00,VWS V14.01,2013-01-05 14:36:00,
2013-01-05 09:37:00,73.9,72.4,30.20,NE,51,8.0,11.0,95,0.00,,FEW,0.01,251.00,VWS V14.01,2013-01-05 14:37:00,
2013-01-05 09:38:00,73.9,72.4,30.20,NNE,31,5.0,11.0,95,0.00,,FEW,0.01,160.00,VWS V14.01,2013-01-05 14:38:00,
2013-01-05 09:39:00,73.9,72.1,30.20,ENE,65,8.0,11.0,94,0.00,,FEW,0.01,206.00,VWS V14.01,2013-01-05 14:39:00,
2013-01-05 09:40:00,73.9,72.1,30.20,NE,46,5.0,11.0,94,0.00,,FEW,0.01,313.00,VWS V14.01,2013-01-05 14:40:00,
2013-01-05 09:42:00,73.9,72.1,30.20,East,82,6.0,6.0,94,0.00,,FEW,0.01,313.00,VWS V14.01,2013-01-05 14:42:00,
2013-01-05 09:43:00,74.0,72.5,30.20,NNE,32,3.0,6.0,95,0.00,,FEW,0.01,313.00,VWS V14.01,2013-01-05 14:43:00,
2013-01-05 09:44:00,74.1,72.3,30.20,NE,47,4.0,7.0,94,0.00,,FEW,0.01,267.00,VWS V14.01,2013-01-05 14:44:00,
2013-01-05 09:47:00,74.3,72.5,30.20,NE,45,4.0,9.0,94,0.00,,FEW,0.01,313.00,VWS V14.01,2013-01-05 14:47:00,
2013-01-05 09:48:00,74.3,72.8,30.20,ENE,57,4.0,9.0,95,0.00,,FEW,0.01,336.00,VWS V14.01,2013-01-05 14:48:00,
2013-01-05 09:50:00,74.4,72.6,30.20,East,98,3.0,9.0,94,0.00,,FEW,0.01,272.00,VWS V14.01,2013-01-05 14:50:00,
2013-01-05 09:52:00,74.6,72.8,30.20,North,5,4.0,8.0,94,0.00,,FEW,0.01,172.00,VWS V14.01,2013-01-05 14:52:00,
2013-01-05 09:53:00,74.6,72.8,30.20,NNE,30,6.0,8.0,94,0.00,,FEW,0.01,172.00,VWS V14.01,2013-01-05 14:53:00,
2013-01-05 09:55:00,74.5,72.7,30.20,NE,40,5.0,14.0,94,0.00,,FEW,0.01,253.00,VWS V14.01,2013-01-05 14:55:00,
2013-01-05 09:57:00,74.4,72.6,30.20,NE,49,6.0,14.0,94,0.00,,FEW,0.01,325.00,VWS V14.01,2013-01-05 14:57:00,
2013-01-05 09:58:00,74.4,72.6,30.20,ENE,73,7.0,14.0,94,0.00,,FEW,0.01,325.00,VWS V14.01,2013-01-05 14:58:00,
2013-01-05 10:00:00,74.4,72.6,30.20,NE,48,6.0,14.0,94,0.00,,FEW,0.01,397.00,VWS V14.01,2013-01-05 15:00:00,
2013-01-05 10:02:00,74.4,72.6,30.20,NE,55,4.0,12.0,94,0.00,,FEW,0.01,155.00,VWS V14.01,2013-01-05 15:02:00,
2013-01-05 10:03:00,74.3,72.5,30.20,NNE,19,8.0,12.0,94,0.00,,FEW,0.01,105.00,VWS V14.01,2013-01-05 15:03:00,
2013-01-05 10:05:00,74.2,72.1,30.20,NE,50,5.0,12.0,93,0.00,,FEW,0.01,125.00,VWS V14.01,2013-01-05 15:05:00,
2013-01-05 10:08:00,74.0,71.8,30.20,NE,54,3.0,12.0,93,0.00,,FEW,0.01,125.00,VWS V14.01,2013-01-05 15:08:00,
2013-01-05 10:10:00,73.9,72.1,30.20,ENE,70,5.0,12.0,94,0.00,,FEW,0.01,169.00,VWS V14.01,2013-01-05 15:10:00,
2013-01-05 10:13:00,73.9,72.1,30.20,NNE,21,6.0,10.0,94,0.00,,FEW,0.01,230.00,VWS V14.01,2013-01-05 15:13:00,
2013-01-05 10:15:00,73.9,72.1,30.20,ENE,69,5.0,11.0,94,0.00,,FEW,0.01,281.00,VWS V14.01,2013-01-05 15:15:00,
2013-01-05 10:18:00,74.0,72.2,30.20,ENE,62,9.0,11.0,94,0.00,,FEW,0.01,199.00,VWS V14.01,2013-01-05 15:18:00,
2013-01-05 10:19:00,74.0,72.2,30.20,NE,54,10.0,11.0,94,0.00,,FEW,0.01,199.00,VWS V14.01,2013-01-05 15:19:00,
2013-01-05 10:20:00,74.0,72.2,30.20,NE,51,7.0,11.0,94,0.00,,FEW,0.01,183.00,VWS V14.01,2013-01-05 15:20:00,
2013-01-05 10:23:00,73.9,72.1,30.20,ENE,57,7.0,12.0,94,0.00,,FEW,0.01,257.00,VWS V14.01,2013-01-05 15:23:00,
2013-01-05 10:24:00,73.9,72.1,30.20,ENE,57,7.0,12.0,94,0.00,,FEW,0.01,257.00,VWS V14.01,2013-01-05 15:24:00,
2013-01-05 10:25:00,73.9,72.1,30.20,NE,35,9.0,12.0,94,0.00,,FEW,0.01,334.00,VWS V14.01,2013-01-05 15:25:00,
2013-01-05 10:28:00,73.9,72.1,30.20,NE,54,6.0,13.0,94,0.00,,FEW,0.01,171.00,VWS V14.01,2013-01-05 15:28:00,
2013-01-05 10:29:00,73.9,72.1,30.20,NE,48,5.0,13.0,94,0.00,,FEW,0.01,171.00,VWS V14.01,2013-01-05 15:29:00,
2013-01-05 10:30:00,73.9,72.1,30.20,NE,42,5.0,13.0,94,0.00,,FEW,0.01,171.00,VWS V14.01,2013-01-05 15:30:00,
2013-01-05 10:33:00,73.8,71.7,30.20,NE,41,3.0,11.0,93,0.00,,FEW,0.01,72.00,VWS V14.01,2013-01-05 15:33:00,
2013-01-05 10:34:00,73.8,71.7,30.20,NE,34,6.0,11.0,93,0.00,,FEW,0.01,69.00,VWS V14.01,2013-01-05 15:34:00,
2013-01-05 10:36:00,73.8,72.0,30.20,NE,47,4.0,11.0,94,0.00,,FEW,0.01,77.00,VWS V14.01,2013-01-05 15:36:00,
2013-01-05 10:39:00,73.8,72.0,30.20,NE,53,5.0,11.0,94,0.00,,FEW,0.01,100.00,VWS V14.01,2013-01-05 15:39:00,
2013-01-05 10:40:00,73.7,71.9,30.20,NNE,28,7.0,11.0,94,0.00,,FEW,0.01,135.00,VWS V14.01,2013-01-05 15:40:00,
2013-01-05 10:41:00,73.7,71.9,30.20,NE,46,4.0,11.0,94,0.00,,FEW,0.01,135.00,VWS V14.01,2013-01-05 15:41:00,
2013-01-05 10:44:00,73.7,71.9,30.20,NE,38,4.0,8.0,94,0.00,,FEW,0.01,128.00,VWS V14.01,2013-01-05 15:44:00,
2013-01-05 10:46:00,73.7,71.9,30.20,ENE,69,5.0,9.0,94,0.00,,FEW,0.01,109.00,VWS V14.01,2013-01-05 15:46:00,
2013-01-05 10:49:00,73.7,71.9,30.20,ENE,74,5.0,9.0,94,0.00,,FEW,0.01,218.00,VWS V14.01,2013-01-05 15:49:00,
2013-01-05 10:50:00,73.7,71.9,30.20,NNE,19,7.0,11.0,94,0.00,,FEW,0.01,236.00,VWS V14.01,2013-01-05 15:50:00,
2013-01-05 10:51:00,73.7,71.9,30.20,ENE,76,11.0,11.0,94,0.00,,FEW,0.01,236.00,VWS V14.01,2013-01-05 15:51:00,
2013-01-05 10:54:00,73.8,72.0,30.20,NNE,32,6.0,8.0,94,0.00,,FEW,0.01,322.00,VWS V14.01,2013-01-05 15:54:00,
2013-01-05 10:56:00,73.8,72.0,30.20,ENE,66,4.0,8.0,94,0.00,,FEW,0.01,251.00,VWS V14.01,2013-01-05 15:56:00,
2013-01-05 10:59:00,74.0,72.2,30.20,NE,38,8.0,10.0,94,0.00,,FEW,0.01,334.00,VWS V14.01,2013-01-05 15:59:00,
2013-01-05 11:00:00,74.2,72.4,30.19,NE,36,4.0,10.0,94,0.00,,FEW,0.01,703.00,VWS V14.01,2013-01-05 16:00:00,
2013-01-05 11:01:00,74.2,72.4,30.19,NE,38,5.0,10.0,94,0.00,,FEW,0.01,703.00,VWS V14.01,2013-01-05 16:01:00,
2013-01-05 11:04:00,74.3,72.5,30.19,ENE,65,3.0,10.0,94,0.00,,FEW,0.01,250.00,VWS V14.01,2013-01-05 16:04:00,
2013-01-05 11:05:00,74.3,72.5,30.19,NNE,24,9.0,10.0,94,0.00,,FEW,0.01,229.00,VWS V14.01,2013-01-05 16:05:00,
2013-01-05 11:06:00,74.3,72.5,30.19,NE,35,3.0,10.0,94,0.00,,FEW,0.01,207.00,VWS V14.01,2013-01-05 16:06:00,
2013-01-05 11:09:00,74.4,72.6,30.19,NE,50,6.0,10.0,94,0.00,,FEW,0.01,243.00,VWS V14.01,2013-01-05 16:09:00,
2013-01-05 11:10:00,74.5,72.7,30.19,NNE,19,5.0,10.0,94,0.00,,FEW,0.01,243.00,VWS V14.01,2013-01-05 16:10:00,
2013-01-05 11:11:00,74.6,72.8,30.19,North,360,6.0,10.0,94,0.00,,FEW,0.01,243.00,VWS V14.01,2013-01-05 16:11:00,
2013-01-05 11:14:00,75.0,72.8,30.19,NE,46,5.0,11.0,93,0.00,,FEW,0.01,492.00,VWS V14.01,2013-01-05 16:14:00,
2013-01-05 11:15:00,75.0,72.8,30.19,NNE,32,3.0,11.0,93,0.00,,FEW,0.01,492.00,VWS V14.01,2013-01-05 16:15:00,
2013-01-05 11:16:00,75.0,72.8,30.19,NNE,26,9.0,11.0,93,0.00,,FEW,0.01,587.00,VWS V14.01,2013-01-05 16:16:00,
2013-01-05 11:19:00,75.1,72.6,30.19,ENE,59,5.0,11.0,92,0.00,,FEW,0.01,218.00,VWS V14.01,2013-01-05 16:19:00,
2013-01-05 11:20:00,75.0,72.5,30.19,North,5,5.0,11.0,92,0.00,,FEW,0.01,295.00,VWS V14.01,2013-01-05 16:20:00,
2013-01-05 11:21:00,74.9,72.4,30.19,North,355,5.0,12.0,92,0.00,,FEW,0.01,295.00,VWS V14.01,2013-01-05 16:21:00,
2013-01-05 11:24:00,75.3,72.8,30.19,NE,54,4.0,9.0,92,0.00,,FEW,0.01,696.00,VWS V14.01,2013-01-05 16:24:00,
2013-01-05 11:25:00,75.3,72.8,30.19,NE,40,4.0,9.0,92,0.00,,FEW,0.01,696.00,VWS V14.01,2013-01-05 16:25:00,
2013-01-05 11:26:00,75.4,72.9,30.19,NNE,17,3.0,9.0,92,0.00,,FEW,0.01,696.00,VWS V14.01,2013-01-05 16:26:00,
2013-01-05 11:29:00,75.9,73.4,30.19,NE,46,4.0,9.0,92,0.00,,FEW,0.01,689.00,VWS V14.01,2013-01-05 16:29:00,
2013-01-05 11:30:00,76.0,73.2,30.19,NE,55,5.0,9.0,91,0.00,,FEW,0.01,689.00,VWS V14.01,2013-01-05 16:30:00,
2013-01-05 11:31:00,76.0,73.2,30.19,NNE,28,4.0,9.0,91,0.00,,FEW,0.01,689.00,VWS V14.01,2013-01-05 16:31:00,
2013-01-05 11:35:00,76.0,72.9,30.19,NE,47,6.0,10.0,90,0.00,,FEW,0.01,267.00,VWS V14.01,2013-01-05 16:35:00,
2013-01-05 11:36:00,76.0,72.9,30.19,NNE,30,5.0,10.0,90,0.00,,FEW,0.01,190.00,VWS V14.01,2013-01-05 16:36:00,
2013-01-05 11:40:00,76.0,72.9,30.19,NNE,32,3.0,10.0,90,0.00,,FEW,0.01,494.00,VWS V14.01,2013-01-05 16:40:00,
2013-01-05 11:41:00,76.1,73.0,30.19,NE,39,3.0,9.0,90,0.00,,FEW,0.01,494.00,VWS V14.01,2013-01-05 16:41:00,
2013-01-05 11:45:00,76.1,72.6,30.19,NNE,26,6.0,9.0,89,0.00,,FEW,0.01,698.00,VWS V14.01,2013-01-05 16:45:00,
2013-01-05 11:46:00,76.1,73.0,30.18,NNE,15,3.0,12.0,90,0.00,,FEW,0.01,698.00,VWS V14.01,2013-01-05 16:46:00,
2013-01-05 11:50:00,76.4,72.9,30.18,NNE,13,3.0,12.0,89,0.00,,FEW,0.01,682.00,VWS V14.01,2013-01-05 16:50:00,
2013-01-05 11:51:00,76.4,72.9,30.18,NE,40,4.0,12.0,89,0.00,,FEW,0.01,687.00,VWS V14.01,2013-01-05 16:51:00,
2013-01-05 11:55:00,76.3,72.8,30.18,NNE,28,5.0,14.0,89,0.00,,FEW,0.01,132.00,VWS V14.01,2013-01-05 16:55:00,
2013-01-05 11:56:00,76.3,72.8,30.18,NE,47,8.0,14.0,89,0.00,,FEW,0.01,132.00,VWS V14.01,2013-01-05 16:56:00,
2013-01-05 12:00:00,75.9,72.4,30.17,NE,51,2.0,14.0,89,0.00,,FEW,0.01,163.00,VWS V14.01,2013-01-05 17:00:00,
2013-01-05 12:01:00,75.9,72.4,30.17,ENE,74,3.0,14.0,89,0.00,,FEW,0.01,163.00,VWS V14.01,2013-01-05 17:01:00,
2013-01-05 12:05:00,76.0,72.9,30.17,ENE,70,3.0,9.0,90,0.00,,FEW,0.01,401.00,VWS V14.01,2013-01-05 17:05:00,
2013-01-05 12:06:00,76.0,72.9,30.17,ENE,65,8.0,9.0,90,0.00,,FEW,0.01,404.00,VWS V14.01,2013-01-05 17:06:00,
2013-01-05 12:07:00,76.0,72.9,30.17,NE,34,3.0,9.0,90,0.00,,FEW,0.01,316.00,VWS V14.01,2013-01-05 17:07:00,
2013-01-05 12:10:00,76.0,72.5,30.17,NE,47,9.0,9.0,89,0.00,,FEW,0.01,239.00,VWS V14.01,2013-01-05 17:10:00,
2013-01-05 12:11:00,76.0,72.5,30.17,ENE,67,5.0,9.0,89,0.00,,FEW,0.01,239.00,VWS V14.01,2013-01-05 17:11:00,
2013-01-05 12:12:00,76.0,72.5,30.17,ENE,57,2.0,4.0,89,0.00,,FEW,0.01,204.00,VWS V14.01,2013-01-05 17:12:00,
2013-01-05 12:16:00,76.1,73.0,30.17,NNE,15,2.0,7.0,90,0.00,,FEW,0.01,116.00,VWS V14.01,2013-01-05 17:16:00,
2013-01-05 12:17:00,76.1,73.0,30.17,NE,56,3.0,7.0,90,0.00,,FEW,0.01,142.00,VWS V14.01,2013-01-05 17:17:00,
2013-01-05 12:20:00,76.1,73.0,30.17,ENE,66,2.0,7.0,90,0.00,,FEW,0.01,311.00,VWS V14.01,2013-01-05 17:20:00,
2013-01-05 12:21:00,76.1,73.0,30.17,ENE,66,2.0,7.0,90,0.00,,FEW,0.01,311.00,VWS V14.01,2013-01-05 17:21:00,
2013-01-05 12:22:00,76.1,73.0,30.17,NNE,29,5.0,8.0,90,0.00,,FEW,0.01,466.00,VWS V14.01,2013-01-05 17:22:00,
2013-01-05 12:26:00,76.2,73.1,30.17,ENE,62,3.0,8.0,90,0.00,,FEW,0.01,250.00,VWS V14.01,2013-01-05 17:26:00,
2013-01-05 12:27:00,76.2,73.1,30.17,ENE,67,4.0,8.0,90,0.00,,FEW,0.01,250.00,VWS V14.01,2013-01-05 17:27:00,
2013-01-05 12:30:00,76.2,73.1,30.16,NE,51,4.0,8.0,90,0.00,,FEW,0.01,98.00,VWS V14.01,2013-01-05 17:30:00,
2013-01-05 12:31:00,76.2,73.1,30.16,ENE,61,2.0,4.0,90,0.00,,FEW,0.01,98.00,VWS V14.01,2013-01-05 17:31:00,
2013-01-05 12:32:00,76.2,73.1,30.16,NNE,33,2.0,5.0,90,0.00,,FEW,0.01,752.00,VWS V14.01,2013-01-05 17:32:00,
2013-01-05 12:36:00,77.3,74.1,30.16,ENE,78,2.0,5.0,90,0.00,,FEW,0.01,684.00,VWS V14.01,2013-01-05 17:36:00,
2013-01-05 12:37:00,77.7,74.2,30.16,ENE,73,4.0,7.0,89,0.00,,FEW,0.01,680.00,VWS V14.01,2013-01-05 17:37:00,
2013-01-05 12:40:00,78.7,74.2,30.16,NE,45,3.0,7.0,86,0.00,,FEW,0.01,684.00,VWS V14.01,2013-01-05 17:40:00,
2013-01-05 12:49:00,79.8,73.8,30.15,ENE,72,2.0,9.0,82,0.00,,FEW,0.01,682.00,VWS V14.01,2013-01-05 17:49:00,
2013-01-05 12:50:00,79.9,73.9,30.15,ENE,70,5.0,9.0,82,0.00,,FEW,0.01,682.00,VWS V14.01,2013-01-05 17:50:00,
2013-01-05 12:54:00,80.1,74.1,30.15,ENE,69,2.0,6.0,82,0.00,,FEW,0.01,679.00,VWS V14.01,2013-01-05 17:54:00,
2013-01-05 12:55:00,80.1,74.1,30.15,ENE,69,2.0,6.0,82,0.00,,FEW,0.01,679.00,VWS V14.01,2013-01-05 17:55:00,
2013-01-05 13:00:00,80.7,74.0,30.15,East,98,3.0,7.0,80,0.00,,FEW,0.01,682.00,VWS V14.01,2013-01-05 18:00:00,
2013-01-05 13:05:00,80.6,73.9,30.14,East,87,3.0,8.0,80,0.00,,FEW,0.01,714.00,VWS V14.01,2013-01-05 18:05:00,
2013-01-05 13:10:00,80.6,73.5,30.14,NE,42,3.0,8.0,79,0.00,,FEW,0.01,684.00,VWS V14.01,2013-01-05 18:10:00,
2013-01-05 13:11:00,80.6,73.5,30.14,ENE,61,2.0,8.0,79,0.00,,FEW,0.01,684.00,VWS V14.01,2013-01-05 18:11:00,
2013-01-05 13:15:00,81.0,73.9,30.14,ESE,119,1.0,7.0,79,0.00,,FEW,0.01,677.00,VWS V14.01,2013-01-05 18:15:00,
2013-01-05 13:16:00,81.0,73.9,30.14,ENE,60,1.0,7.0,79,0.00,,FEW,0.01,677.00,VWS V14.01,2013-01-05 18:16:00,
2013-01-05 13:20:00,81.2,73.3,30.14,ESE,114,3.0,8.0,77,0.00,,FEW,0.01,668.00,VWS V14.01,2013-01-05 18:20:00,
2013-01-05 13:21:00,81.2,73.3,30.14,ENE,59,3.0,8.0,77,0.00,,FEW,0.01,668.00,VWS V14.01,2013-01-05 18:21:00,
2013-01-05 13:25:00,81.2,73.7,30.14,East,97,5.0,6.0,78,0.00,,FEW,0.01,663.00,VWS V14.01,2013-01-05 18:25:00,
2013-01-05 13:26:00,81.2,73.7,30.14,East,101,9.0,9.0,78,0.00,,FEW,0.01,663.00,VWS V14.01,2013-01-05 18:26:00,
2013-01-05 13:30:00,81.4,73.9,30.13,ENE,64,3.0,9.0,78,0.00,,FEW,0.01,656.00,VWS V14.01,2013-01-05 18:30:00,
2013-01-05 13:31:00,81.5,74.0,30.13,East,94,5.0,9.0,78,0.00,,FEW,0.01,659.00,VWS V14.01,2013-01-05 18:31:00,
2013-01-05 13:36:00,81.4,73.5,30.13,NE,46,1.0,8.0,77,0.00,,FEW,0.01,656.00,VWS V14.01,2013-01-05 18:36:00,
2013-01-05 13:40:00,81.2,72.9,30.13,ESE,105,4.0,9.0,76,0.00,,FEW,0.01,647.00,VWS V14.01,2013-01-05 18:40:00,
2013-01-05 13:41:00,81.3,73.0,30.13,ENE,65,5.0,9.0,76,0.00,,FEW,0.01,647.00,VWS V14.01,2013-01-05 18:41:00,
2013-01-05 13:46:00,80.9,73.4,30.13,ENE,65,2.0,7.0,78,0.00,,FEW,0.01,642.00,VWS V14.01,2013-01-05 18:46:00,
2013-01-05 13:47:00,81.0,73.5,30.13,ENE,67,5.0,7.0,78,0.00,,FEW,0.01,638.00,VWS V14.01,2013-01-05 18:47:00,
2013-01-05 13:50:00,80.9,73.0,30.13,ESE,107,4.0,8.0,77,0.00,,FEW,0.01,636.00,VWS V14.01,2013-01-05 18:50:00,
2013-01-05 13:51:00,80.9,73.0,30.13,ENE,67,4.0,8.0,77,0.00,,FEW,0.01,636.00,VWS V14.01,2013-01-05 18:51:00,
2013-01-05 13:52:00,80.8,72.9,30.13,East,94,2.0,4.0,77,0.00,,FEW,0.01,636.00,VWS V14.01,2013-01-05 18:52:00,
2013-01-05 13:56:00,80.8,72.9,30.13,ENE,59,4.0,8.0,77,0.00,,FEW,0.01,622.00,VWS V14.01,2013-01-05 18:56:00,
2013-01-05 13:57:00,80.7,72.8,30.13,ENE,67,9.0,9.0,77,0.00,,FEW,0.01,622.00,VWS V14.01,2013-01-05 18:57:00,
2013-01-05 14:00:00,80.7,72.8,30.12,ENE,61,3.0,10.0,77,0.00,,FEW,0.01,613.00,VWS V14.01,2013-01-05 19:00:00,
2013-01-05 14:01:00,80.7,72.8,30.12,ENE,61,3.0,10.0,77,0.00,,FEW,0.01,613.00,VWS V14.01,2013-01-05 19:01:00,
2013-01-05 14:02:00,80.7,72.8,30.12,ESE,106,7.0,7.0,77,0.00,,FEW,0.01,612.00,VWS V14.01,2013-01-05 19:02:00,
2013-01-05 14:06:00,81.0,73.1,30.12,SE,126,4.0,7.0,77,0.00,,FEW,0.01,608.00,VWS V14.01,2013-01-05 19:06:00,
2013-01-05 14:07:00,81.0,73.1,30.12,ENE,59,5.0,7.0,77,0.00,,FEW,0.01,605.00,VWS V14.01,2013-01-05 19:07:00,
2013-01-05 14:10:00,80.8,72.9,30.12,ENE,74,4.0,8.0,77,0.00,,FEW,0.01,594.00,VWS V14.01,2013-01-05 19:10:00,
2013-01-05 14:11:00,80.8,72.9,30.12,NE,51,5.0,5.0,77,0.00,,FEW,0.01,596.00,VWS V14.01,2013-01-05 19:11:00,
2013-01-05 14:12:00,80.8,72.9,30.12,SE,130,2.0,5.0,77,0.00,,FEW,0.01,596.00,VWS V14.01,2013-01-05 19:12:00,
2013-01-05 14:16:00,81.1,73.2,30.12,NE,40,4.0,7.0,77,0.00,,FEW,0.01,589.00,VWS V14.01,2013-01-05 19:16:00,
2013-01-05 14:17:00,81.1,73.2,30.12,North,5,2.0,7.0,77,0.00,,FEW,0.01,587.00,VWS V14.01,2013-01-05 19:17:00,
2013-01-05 14:20:00,81.0,73.1,30.12,East,86,3.0,7.0,77,0.00,,FEW,0.01,584.00,VWS V14.01,2013-01-05 19:20:00,
2013-01-05 14:21:00,81.0,73.1,30.12,ENE,78,3.0,3.0,77,0.00,,FEW,0.01,584.00,VWS V14.01,2013-01-05 19:21:00,
2013-01-05 14:22:00,81.0,73.1,30.12,East,84,2.0,3.0,77,0.00,,FEW,0.01,582.00,VWS V14.01,2013-01-05 19:22:00,
2013-01-05 14:26:00,81.1,73.2,30.12,East,81,5.0,11.0,77,0.00,,FEW,0.01,589.00,VWS V14.01,2013-01-05 19:26:00,
2013-01-05 14:27:00,81.0,73.1,30.12,NE,55,3.0,11.0,77,0.00,,FEW,0.01,592.00,VWS V14.01,2013-01-05 19:27:00,
2013-01-05 14:30:00,80.8,72.9,30.11,ENE,67,5.0,11.0,77,0.00,,FEW,0.01,566.00,VWS V14.01,2013-01-05 19:30:00,
2013-01-05 14:31:00,80.7,72.8,30.11,NE,47,6.0,6.0,77,0.00,,FEW,0.01,566.00,VWS V14.01,2013-01-05 19:31:00,
2013-01-05 14:32:00,80.7,72.8,30.11,ENE,76,5.0,9.0,77,0.00,,FEW,0.01,559.00,VWS V14.01,2013-01-05 19:32:00,
2013-01-05 14:33:00,80.6,72.7,30.11,East,94,3.0,9.0,77,0.00,,FEW,0.01,559.00,VWS V14.01,2013-01-05 19:33:00,
2013-01-05 14:36:00,80.7,73.6,30.11,ENE,72,3.0,9.0,79,0.00,,FEW,0.01,550.00,VWS V14.01,2013-01-05 19:36:00,
2013-01-05 14:37:00,80.8,73.3,30.11,East,92,5.0,9.0,78,0.00,,FEW,0.01,548.00,VWS V14.01,2013-01-05 19:37:00,
2013-01-05 14:38:00,80.8,72.9,30.11,ENE,74,5.0,9.0,77,0.00,,FEW,0.01,548.00,VWS V14.01,2013-01-05 19:38:00,
2013-01-05 14:40:00,80.8,73.3,30.11,NE,34,4.0,9.0,78,0.00,,FEW,0.01,541.00,VWS V14.01,2013-01-05 19:40:00,
2013-01-05 14:41:00,80.8,73.3,30.11,East,82,7.0,7.0,78,0.00,,FEW,0.01,541.00,VWS V14.01,2013-01-05 19:41:00,
2013-01-05 14:42:00,80.7,73.2,30.11,ENE,72,4.0,7.0,78,0.00,,FEW,0.01,538.00,VWS V14.01,2013-01-05 19:42:00,
2013-01-05 14:43:00,80.7,73.2,30.11,ENE,73,4.0,7.0,78,0.00,,FEW,0.01,538.00,VWS V14.01,2013-01-05 19:43:00,
2013-01-05 14:46:00,80.6,73.1,30.11,ENE,67,2.0,7.0,78,0.00,,FEW,0.01,529.00,VWS V14.01,2013-01-05 19:46:00,
2013-01-05 14:47:00,80.7,73.2,30.11,ENE,57,3.0,7.0,78,0.00,,FEW,0.01,527.00,VWS V14.01,2013-01-05 19:47:00,
2013-01-05 14:48:00,80.8,73.3,30.11,East,93,1.0,7.0,78,0.00,,FEW,0.01,526.00,VWS V14.01,2013-01-05 19:48:00,
2013-01-05 14:50:00,81.3,73.4,30.11,ENE,67,3.0,8.0,77,0.00,,FEW,0.01,515.00,VWS V14.01,2013-01-05 19:50:00,
2013-01-05 14:52:00,81.3,73.4,30.11,East,97,3.0,5.0,77,0.00,,FEW,0.01,513.00,VWS V14.01,2013-01-05 19:52:00,
2013-01-05 14:53:00,81.2,73.3,30.11,ENE,65,4.0,5.0,77,0.00,,FEW,0.01,517.00,VWS V14.01,2013-01-05 19:53:00,
2013-01-05 14:57:00,81.2,73.7,30.11,ENE,77,5.0,6.0,78,0.00,,FEW,0.01,503.00,VWS V14.01,2013-01-05 19:57:00,
2013-01-05 14:58:00,81.2,73.3,30.11,East,92,6.0,7.0,77,0.00,,FEW,0.01,501.00,VWS V14.01,2013-01-05 19:58:00,
2013-01-05 15:00:00,80.9,73.0,30.11,NE,55,3.0,7.0,77,0.00,,FEW,0.01,489.00,VWS V14.01,2013-01-05 20:00:00,
2013-01-05 15:02:00,80.8,72.9,30.11,East,92,9.0,9.0,77,0.00,,FEW,0.01,489.00,VWS V14.01,2013-01-05 20:02:00,
2013-01-05 15:03:00,80.7,72.8,30.11,ENE,59,4.0,9.0,77,0.00,,FEW,0.01,489.00,VWS V14.01,2013-01-05 20:03:00,
2013-01-05 15:07:00,80.5,73.0,30.11,East,88,2.0,9.0,78,0.00,,FEW,0.01,485.00,VWS V14.01,2013-01-05 20:07:00,
2013-01-05 15:08:00,80.6,73.1,30.11,East,87,5.0,9.0,78,0.00,,FEW,0.01,501.00,VWS V14.01,2013-01-05 20:08:00,
2013-01-05 15:10:00,80.6,72.7,30.11,NE,55,6.0,9.0,77,0.00,,FEW,0.01,482.00,VWS V14.01,2013-01-05 20:10:00,
2013-01-05 15:12:00,80.5,72.6,30.11,NE,46,4.0,7.0,77,0.00,,FEW,0.01,482.00,VWS V14.01,2013-01-05 20:12:00,
2013-01-05 15:13:00,80.6,73.1,30.11,ENE,75,4.0,8.0,78,0.00,,FEW,0.01,482.00,VWS V14.01,2013-01-05 20:13:00,
2013-01-05 15:14:00,80.6,73.1,30.11,NE,49,7.0,8.0,78,0.00,,FEW,0.01,482.00,VWS V14.01,2013-01-05 20:14:00,
2013-01-05 15:17:00,80.5,72.6,30.11,East,93,2.0,8.0,77,0.00,,FEW,0.01,469.00,VWS V14.01,2013-01-05 20:17:00,
2013-01-05 15:18:00,80.4,72.9,30.11,ENE,74,2.0,8.0,78,0.00,,FEW,0.01,459.00,VWS V14.01,2013-01-05 20:18:00,
2013-01-05 15:19:00,80.4,72.9,30.11,NE,36,3.0,8.0,78,0.00,,FEW,0.01,461.00,VWS V14.01,2013-01-05 20:19:00,
2013-01-05 15:20:00,80.5,73.0,30.11,NE,49,5.0,8.0,78,0.00,,FEW,0.01,473.00,VWS V14.01,2013-01-05 20:20:00,
2013-01-05 15:22:00,80.5,73.0,30.11,NE,34,1.0,11.0,78,0.00,,FEW,0.01,473.00,VWS V14.01,2013-01-05 20:22:00,
2013-01-05 15:23:00,80.5,73.0,30.11,NNE,33,3.0,11.0,78,0.00,,FEW,0.01,441.00,VWS V14.01,2013-01-05 20:23:00,
2013-01-05 15:24:00,80.6,73.1,30.11,NE,56,3.0,11.0,78,0.00,,FEW,0.01,441.00,VWS V14.01,2013-01-05 20:24:00,
2013-01-05 15:27:00,80.6,73.1,30.11,ENE,67,2.0,11.0,78,0.00,,FEW,0.01,425.00,VWS V14.01,2013-01-05 20:27:00,
2013-01-05 15:28:00,80.6,73.1,30.11,ESE,118,5.0,11.0,78,0.00,,FEW,0.01,425.00,VWS V14.01,2013-01-05 20:28:00,
2013-01-05 15:29:00,80.6,73.1,30.11,ESE,112,1.0,11.0,78,0.00,,FEW,0.01,425.00,VWS V14.01,2013-01-05 20:29:00,
2013-01-05 15:30:00,80.6,73.1,30.11,NNE,25,10.0,11.0,78,0.00,,FEW,0.01,425.00,VWS V14.01,2013-01-05 20:30:00,
2013-01-05 15:32:00,80.6,73.1,30.11,ENE,76,3.0,10.0,78,0.00,,FEW,0.01,424.00,VWS V14.01,2013-01-05 20:32:00,
2013-01-05 15:33:00,80.6,72.7,30.11,NE,45,4.0,10.0,77,0.00,,FEW,0.01,420.00,VWS V14.01,2013-01-05 20:33:00,
2013-01-05 15:39:00,80.4,72.9,30.11,NE,49,2.0,2.0,78,0.00,,FEW,0.01,413.00,VWS V14.01,2013-01-05 20:39:00,
2013-01-05 15:40:00,80.4,72.9,30.11,East,86,5.0,5.0,78,0.00,,FEW,0.01,396.00,VWS V14.01,2013-01-05 20:40:00,
2013-01-05 15:44:00,80.3,72.8,30.11,NNE,20,2.0,7.0,78,0.00,,FEW,0.01,396.00,VWS V14.01,2013-01-05 20:44:00,
2013-01-05 15:49:00,80.7,73.2,30.11,ENE,70,3.0,8.0,78,0.00,,FEW,0.01,383.00,VWS V14.01,2013-01-05 20:49:00,